Time;durP1;ratioP1;P1;durP2;ratioP2;P2;SDS_P1;SDS_P2;PMS_P1;PMS_P2;Temp;Humidity;BMP_temperature;BMP_pressure;BME280_temperature;BME280_humidity;BME280_pressure;Samples;Min_cycle;Max_cycle;Signal;HPM_P1;HPM_P2
2020/12/26 00:02:12;;;;;;;17.53;12.03;;;6.70;86.00;;;;;;5073053;28;20730;-52
2020/12/26 00:04:39;;;;;;;21.60;13.20;;;6.70;85.90;;;;;;5072658;28;20634;-52
2020/12/26 00:07:06;;;;;;;20.03;12.10;;;6.80;86.00;;;;;;5071569;28;20640;-52
2020/12/26 00:09:33;;;;;;;17.53;11.90;;;6.70;85.70;;;;;;5072294;28;20626;-50
2020/12/26 00:12:00;;;;;;;17.97;12.80;;;6.70;86.10;;;;;;5072069;28;20629;-51
2020/12/26 00:14:27;;;;;;;17.40;11.73;;;6.60;86.30;;;;;;5071597;28;20898;-50
2020/12/26 00:16:57;;;;;;;13.63;11.57;;;6.60;86.40;;;;;;5072556;28;21140;-52
2020/12/26 00:19:24;;;;;;;14.10;12.00;;;6.60;86.50;;;;;;5071502;28;20703;-52
2020/12/26 00:21:52;;;;;;;20.63;14.10;;;6.60;86.70;;;;;;5072314;28;21001;-50
2020/12/26 00:24:21;;;;;;;15.83;12.00;;;6.60;86.90;;;;;;5071741;28;21129;-51
2020/12/26 00:26:48;;;;;;;17.87;12.63;;;6.50;86.80;;;;;;5072253;28;20663;-51
2020/12/26 00:29:15;;;;;;;18.77;11.90;;;6.60;87.20;;;;;;5071300;28;20660;-50
2020/12/26 00:31:41;;;;;;;12.63;11.17;;;6.60;87.10;;;;;;5071740;28;20736;-51
2020/12/26 00:34:08;;;;;;;17.73;11.60;;;6.50;86.80;;;;;;5071442;28;20666;-50
2020/12/26 00:36:37;;;;;;;16.43;13.37;;;6.50;87.20;;;;;;5071601;28;20683;-49
2020/12/26 00:39:05;;;;;;;18.93;12.33;;;6.50;87.20;;;;;;5071621;28;20675;-52
2020/12/26 00:41:32;;;;;;;18.30;13.50;;;6.50;87.50;;;;;;5053693;28;20700;-51
2020/12/26 00:43:58;;;;;;;16.00;11.63;;;6.50;87.60;;;;;;5071219;28;20834;-51
2020/12/26 00:46:25;;;;;;;18.50;13.00;;;6.60;87.70;;;;;;5071761;28;20613;-50
2020/12/26 00:48:52;;;;;;;15.23;12.43;;;6.50;87.60;;;;;;5070900;28;20653;-50
2020/12/26 00:51:19;;;;;;;20.97;12.03;;;6.50;87.70;;;;;;5071299;28;20633;-50
2020/12/26 00:53:45;;;;;;;18.17;11.60;;;6.50;87.60;;;;;;5071333;28;20683;-52
2020/12/26 00:56:13;;;;;;;16.37;11.60;;;6.60;87.50;;;;;;5071183;28;20704;-51
2020/12/26 00:58:40;;;;;;;15.93;11.80;;;6.60;87.40;;;;;;5070990;28;20657;-52
2020/12/26 01:01:06;;;;;;;15.90;11.53;;;6.50;87.50;;;;;;5071252;28;21030;-53
2020/12/26 01:03:33;;;;;;;16.50;12.20;;;6.50;87.80;;;;;;5071137;28;20661;-53
2020/12/26 01:06:00;;;;;;;17.20;13.27;;;6.50;87.80;;;;;;5071456;28;20629;-52
2020/12/26 01:08:27;;;;;;;13.57;10.63;;;6.50;88.00;;;;;;5070965;28;20657;-52
2020/12/26 01:10:54;;;;;;;13.93;12.43;;;6.40;88.20;;;;;;5071111;28;20634;-53
2020/12/26 01:13:22;;;;;;;16.17;12.40;;;6.30;88.60;;;;;;5071626;28;20626;-53
2020/12/26 01:15:52;;;;;;;17.47;12.33;;;6.40;88.90;;;;;;5071174;28;20625;-51
2020/12/26 01:18:18;;;;;;;15.40;13.57;;;6.40;88.60;;;;;;5070654;28;20664;-51
2020/12/26 01:20:45;;;;;;;13.17;11.20;;;6.40;88.50;;;;;;5070665;28;20988;-51
2020/12/26 01:23:12;;;;;;;15.53;13.07;;;6.40;88.30;;;;;;5070009;28;21065;-53
2020/12/26 01:25:39;;;;;;;16.37;13.80;;;6.40;88.50;;;;;;5070635;28;20960;-52
2020/12/26 01:28:05;;;;;;;15.53;12.50;;;6.40;88.30;;;;;;5070549;28;21007;-52
2020/12/26 01:30:33;;;;;;;14.93;11.63;;;6.40;88.30;;;;;;5070622;28;20961;-52
2020/12/26 01:33:00;;;;;;;15.23;11.90;;;6.40;88.60;;;;;;5070190;28;20690;-52
2020/12/26 01:35:26;;;;;;;24.20;12.73;;;6.30;88.90;;;;;;5070464;28;20671;-53
2020/12/26 01:37:53;;;;;;;15.90;12.83;;;6.40;89.30;;;;;;5070358;28;20703;-50
2020/12/26 01:40:20;;;;;;;15.07;12.00;;;6.40;89.20;;;;;;5070900;28;20687;-51
2020/12/26 01:42:47;;;;;;;15.90;13.53;;;6.40;89.20;;;;;;5070301;28;20661;-51
2020/12/26 01:45:14;;;;;;;16.70;13.33;;;6.40;88.80;;;;;;5070470;28;20686;-49
2020/12/26 01:47:41;;;;;;;14.10;11.00;;;6.40;88.70;;;;;;5070286;28;21079;-50
2020/12/26 01:50:08;;;;;;;15.90;11.37;;;6.40;88.50;;;;;;5070537;28;20966;-51
2020/12/26 01:52:35;;;;;;;14.30;12.00;;;6.50;88.50;;;;;;5070333;28;20694;-52
2020/12/26 01:55:01;;;;;;;15.20;12.83;;;6.50;89.30;;;;;;5071215;28;21254;-51
2020/12/26 01:57:33;;;;;;;18.73;12.07;;;6.40;88.60;;;;;;5071245;28;20691;-50
2020/12/26 02:00:00;;;;;;;19.87;13.27;;;6.40;88.50;;;;;;5070239;28;20633;-51
2020/12/26 02:02:27;;;;;;;16.07;11.90;;;6.50;88.60;;;;;;5070792;28;20625;-52
2020/12/26 02:04:54;;;;;;;18.77;13.97;;;6.40;88.40;;;;;;5070427;28;20948;-51
2020/12/26 02:07:21;;;;;;;15.70;12.50;;;6.40;88.40;;;;;;5070333;28;20661;-52
2020/12/26 02:09:48;;;;;;;14.40;12.17;;;6.40;88.20;;;;;;5070438;28;20625;-50
2020/12/26 02:12:14;;;;;;;19.23;12.33;;;6.40;88.20;;;;;;5070229;28;20694;-50
2020/12/26 02:14:45;;;;;;;16.93;10.63;;;6.40;88.40;;;;;;5070089;28;20622;-52
2020/12/26 02:17:12;;;;;;;19.00;12.30;;;6.30;88.40;;;;;;5069607;28;20636;-50
2020/12/26 02:19:39;;;;;;;13.60;11.80;;;6.30;88.90;;;;;;5070130;28;20691;-50
2020/12/26 02:22:06;;;;;;;18.00;12.73;;;6.30;90.00;;;;;;5070313;28;20682;-50
2020/12/26 02:24:34;;;;;;;18.27;14.23;;;6.30;89.50;;;;;;5069566;28;20683;-50
2020/12/26 02:27:01;;;;;;;14.77;12.03;;;6.30;89.30;;;;;;5070339;28;20621;-51
2020/12/26 02:29:27;;;;;;;13.53;10.63;;;6.30;89.30;;;;;;5052272;28;20663;-52
2020/12/26 02:31:54;;;;;;;13.70;11.77;;;6.30;89.10;;;;;;5070227;28;20750;-51
2020/12/26 02:34:21;;;;;;;17.07;13.23;;;6.30;89.30;;;;;;5069907;28;20624;-51
2020/12/26 02:36:47;;;;;;;18.83;13.10;;;6.30;89.50;;;;;;5069729;28;20683;-50
2020/12/26 02:39:14;;;;;;;16.23;10.43;;;6.30;89.50;;;;;;5069893;28;20646;-51
2020/12/26 02:41:42;;;;;;;13.40;11.70;;;6.40;89.40;;;;;;5070081;28;20964;-52
2020/12/26 02:44:09;;;;;;;14.93;12.43;;;6.40;89.00;;;;;;5069425;28;20653;-53
2020/12/26 02:46:35;;;;;;;15.00;11.40;;;6.40;89.10;;;;;;5069785;28;20626;-52
2020/12/26 02:49:02;;;;;;;18.43;10.90;;;6.50;88.90;;;;;;5068854;28;21117;-53
2020/12/26 02:51:29;;;;;;;24.67;12.60;;;6.50;88.70;;;;;;5069891;28;20648;-52
2020/12/26 02:53:55;;;;;;;15.47;11.17;;;6.40;88.70;;;;;;5069505;28;20626;-52
2020/12/26 02:56:22;;;;;;;19.37;13.50;;;6.50;89.30;;;;;;5069411;28;20703;-52
2020/12/26 02:58:50;;;;;;;16.93;13.17;;;6.50;88.40;;;;;;5069567;28;21014;-52
2020/12/26 03:01:16;;;;;;;15.93;10.90;;;6.40;88.20;;;;;;5069703;28;20695;-52
2020/12/26 03:03:43;;;;;;;21.33;12.40;;;6.40;88.30;;;;;;5068143;28;20653;-53
2020/12/26 03:06:11;;;;;;;15.10;11.20;;;6.40;88.80;;;;;;5068613;28;20691;-53
2020/12/26 03:08:38;;;;;;;16.83;13.00;;;6.40;88.60;;;;;;5070044;28;20656;-52
2020/12/26 03:11:05;;;;;;;19.10;11.77;;;6.30;88.60;;;;;;5069448;28;20634;-52
2020/12/26 03:13:32;;;;;;;14.40;11.97;;;6.30;88.60;;;;;;5073051;28;20629;-52
2020/12/26 03:15:59;;;;;;;16.17;11.53;;;6.40;89.50;;;;;;5073470;28;21206;-50
2020/12/26 03:18:26;;;;;;;13.70;11.07;;;6.40;88.50;;;;;;5072697;28;20676;-50
2020/12/26 03:20:53;;;;;;;17.10;12.00;;;6.50;88.40;;;;;;5072824;28;21185;-50
2020/12/26 03:23:19;;;;;;;18.03;11.60;;;6.40;88.20;;;;;;5072607;28;20662;-50
2020/12/26 03:25:46;;;;;;;16.83;12.80;;;6.40;88.20;;;;;;5073382;28;20781;-51
2020/12/26 03:28:13;;;;;;;17.73;10.90;;;6.40;88.10;;;;;;5072182;28;20726;-50
2020/12/26 03:30:40;;;;;;;19.43;11.43;;;6.50;88.20;;;;;;5073119;28;20699;-50
2020/12/26 03:33:07;;;;;;;16.90;11.57;;;6.50;88.00;;;;;;5072807;28;20622;-50
2020/12/26 03:35:34;;;;;;;14.70;11.23;;;6.50;87.80;;;;;;5072819;28;20790;-51
2020/12/26 03:38:01;;;;;;;21.40;11.30;;;6.40;87.60;;;;;;5072531;28;21216;-50
2020/12/26 03:40:27;;;;;;;15.43;11.60;;;6.40;87.70;;;;;;5072574;28;20662;-51
2020/12/26 03:42:54;;;;;;;11.67;10.47;;;6.40;87.80;;;;;;5071717;28;21004;-52
2020/12/26 03:45:21;;;;;;;24.10;13.00;;;6.40;87.90;;;;;;5072538;28;20694;-52
2020/12/26 03:47:48;;;;;;;13.57;10.90;;;6.40;87.90;;;;;;5072198;28;20658;-51
2020/12/26 03:50:15;;;;;;;24.73;11.83;;;6.50;88.00;;;;;;5072519;28;21149;-52
2020/12/26 03:52:42;;;;;;;14.77;12.07;;;6.50;87.70;;;;;;5072674;28;21107;-52
2020/12/26 03:55:09;;;;;;;17.50;10.87;;;6.50;87.70;;;;;;5072204;28;20630;-52
2020/12/26 03:57:35;;;;;;;16.13;10.77;;;6.50;87.70;;;;;;5072399;28;20715;-52
2020/12/26 04:00:03;;;;;;;11.00;8.20;;;6.40;87.80;;;;;;5072743;28;20682;-51
2020/12/26 04:02:30;;;;;;;16.63;11.70;;;6.30;88.10;;;;;;5072138;28;20655;-52
2020/12/26 04:04:57;;;;;;;14.00;10.67;;;6.20;88.30;;;;;;5071959;28;20666;-52
2020/12/26 04:07:24;;;;;;;13.60;10.67;;;6.20;88.30;;;;;;5071937;28;20721;-52
2020/12/26 04:09:51;;;;;;;13.73;10.47;;;6.20;88.70;;;;;;5072380;28;20633;-51
2020/12/26 04:12:18;;;;;;;13.10;10.27;;;6.10;88.70;;;;;;5071938;28;21043;-52
2020/12/26 04:14:44;;;;;;;14.80;10.30;;;6.20;88.80;;;;;;5072453;28;20722;-52
2020/12/26 04:17:11;;;;;;;17.60;11.50;;;6.10;88.70;;;;;;5071756;28;20625;-51
2020/12/26 04:19:38;;;;;;;14.10;10.83;;;6.10;88.70;;;;;;5071757;28;21150;-52
2020/12/26 04:22:05;;;;;;;14.83;10.57;;;6.20;88.80;;;;;;5071984;28;20625;-52
2020/12/26 04:24:32;;;;;;;15.30;10.60;;;6.20;88.70;;;;;;5070618;28;20660;-50
2020/12/26 04:26:59;;;;;;;18.67;12.13;;;6.20;88.60;;;;;;5071964;28;20625;-51
2020/12/26 04:29:26;;;;;;;15.10;9.63;;;6.20;88.60;;;;;;5071796;28;20637;-50
2020/12/26 04:31:52;;;;;;;14.70;9.67;;;6.20;88.50;;;;;;5071709;28;20648;-50
2020/12/26 04:34:19;;;;;;;19.00;12.90;;;6.20;88.40;;;;;;5071530;28;20991;-50
2020/12/26 04:36:46;;;;;;;16.50;11.30;;;6.10;88.70;;;;;;5071853;28;20629;-50
2020/12/26 04:39:13;;;;;;;13.67;10.17;;;6.10;88.90;;;;;;5071587;28;20684;-50
2020/12/26 04:41:40;;;;;;;14.40;11.27;;;6.10;88.80;;;;;;5071642;28;21180;-50
2020/12/26 04:44:07;;;;;;;14.90;11.43;;;6.20;89.00;;;;;;5071531;28;20668;-51
2020/12/26 04:46:35;;;;;;;16.63;10.60;;;6.20;89.00;;;;;;5071620;28;20675;-51
2020/12/26 04:49:03;;;;;;;17.70;12.77;;;6.10;89.00;;;;;;5071476;28;20819;-50
2020/12/26 04:51:32;;;;;;;14.20;10.70;;;6.10;89.20;;;;;;5071896;28;20718;-51
2020/12/26 04:54:06;;;;;;;20.73;12.87;;;6.20;89.20;;;;;;5071503;28;20816;-51
2020/12/26 04:56:33;;;;;;;18.90;12.80;;;6.10;89.30;;;;;;5071793;28;21055;-50
2020/12/26 04:59:01;;;;;;;21.63;12.90;;;6.00;89.70;;;;;;5071086;28;20661;-50
2020/12/26 05:01:28;;;;;;;17.67;13.47;;;5.90;90.00;;;;;;5071521;28;20687;-50
2020/12/26 05:03:54;;;;;;;17.50;13.60;;;5.80;90.10;;;;;;5071100;28;20727;-50
2020/12/26 05:06:21;;;;;;;21.00;12.13;;;5.80;90.40;;;;;;5071636;28;20637;-50
2020/12/26 05:08:48;;;;;;;20.00;12.43;;;5.80;90.40;;;;;;5070699;28;20731;-50
2020/12/26 05:11:14;;;;;;;18.90;10.03;;;5.80;90.50;;;;;;5071515;28;20678;-50
2020/12/26 05:13:42;;;;;;;16.70;11.83;;;5.80;90.50;;;;;;5070913;28;20667;-50
2020/12/26 05:16:10;;;;;;;23.20;14.53;;;5.80;90.60;;;;;;5071343;28;21025;-51
2020/12/26 05:18:37;;;;;;;17.90;13.43;;;5.90;90.50;;;;;;5071138;28;20662;-50
2020/12/26 05:21:05;;;;;;;14.10;11.00;;;6.00;90.50;;;;;;5070813;28;20682;-51
2020/12/26 05:23:31;;;;;;;15.60;11.83;;;5.90;90.60;;;;;;5070205;28;20719;-50
2020/12/26 05:25:58;;;;;;;13.63;10.70;;;5.90;90.70;;;;;;5071416;28;20683;-51
2020/12/26 05:28:27;;;;;;;19.93;13.37;;;6.00;90.60;;;;;;5070713;28;20742;-50
2020/12/26 05:30:54;;;;;;;20.20;14.27;;;5.90;90.60;;;;;;5071267;28;20954;-52
2020/12/26 05:33:21;;;;;;;15.53;11.20;;;6.00;90.70;;;;;;5070993;28;20623;-52
2020/12/26 05:35:49;;;;;;;21.30;14.57;;;6.00;90.70;;;;;;5070062;28;20806;-53
2020/12/26 05:38:17;;;;;;;22.13;14.17;;;6.00;90.70;;;;;;5070505;28;20656;-52
2020/12/26 05:40:45;;;;;;;23.23;14.83;;;6.00;90.60;;;;;;5070284;28;20949;-53
2020/12/26 05:43:17;;;;;;;21.97;13.80;;;6.00;90.70;;;;;;5070137;28;21174;-52
2020/12/26 05:45:43;;;;;;;20.70;12.53;;;6.00;90.90;;;;;;5070399;28;20625;-52
2020/12/26 05:48:11;;;;;;;20.77;13.73;;;6.00;90.80;;;;;;5054476;28;20669;-51
2020/12/26 05:50:39;;;;;;;23.23;13.90;;;6.00;90.80;;;;;;5050774;28;20653;-52
2020/12/26 05:53:06;;;;;;;23.00;12.53;;;6.10;90.90;;;;;;5050418;28;20668;-52
2020/12/26 05:55:37;;;;;;;18.63;12.57;;;6.00;90.90;;;;;;5050483;28;20715;-53
2020/12/26 05:58:04;;;;;;;15.73;12.37;;;6.10;91.00;;;;;;5050144;28;20657;-52
2020/12/26 06:00:32;;;;;;;18.17;12.30;;;6.00;91.10;;;;;;5050483;28;20638;-52
2020/12/26 06:02:59;;;;;;;20.93;13.27;;;6.00;91.10;;;;;;5050097;28;20633;-52
2020/12/26 06:05:26;;;;;;;23.57;12.33;;;6.00;91.00;;;;;;5050290;28;20661;-51
2020/12/26 06:07:54;;;;;;;14.23;12.43;;;5.90;91.10;;;;;;5050050;28;20697;-52
2020/12/26 06:10:21;;;;;;;19.00;14.90;;;6.00;91.20;;;;;;5050093;28;21247;-52
2020/12/26 06:12:47;;;;;;;19.73;13.20;;;5.90;91.00;;;;;;5049709;28;20683;-51
2020/12/26 06:15:15;;;;;;;19.40;12.40;;;5.90;91.10;;;;;;5050042;28;20688;-52
2020/12/26 06:17:42;;;;;;;17.67;12.77;;;5.90;91.00;;;;;;5061635;28;20665;-52
2020/12/26 06:20:09;;;;;;;16.33;11.73;;;5.90;91.20;;;;;;5070493;28;21192;-52
2020/12/26 06:22:45;;;;;;;22.50;13.67;;;5.90;91.20;;;;;;5070367;28;20629;-52
2020/12/26 06:25:14;;;;;;;18.73;12.37;;;5.80;91.10;;;;;;5069108;28;20657;-52
2020/12/26 06:27:57;;;;;;;19.17;13.10;;;5.80;91.20;;;;;;5069797;28;21274;-52
2020/12/26 06:30:23;;;;;;;17.73;12.67;;;5.80;91.30;;;;;;5070044;28;20690;-51
2020/12/26 06:32:51;;;;;;;16.07;12.40;;;5.70;91.30;;;;;;5069603;28;20774;-52
2020/12/26 06:35:17;;;;;;;21.37;13.37;;;5.70;91.60;;;;;;5069688;28;21025;-52
2020/12/26 06:37:45;;;;;;;17.27;11.87;;;5.70;91.60;;;;;;5069778;28;20664;-52
2020/12/26 06:40:28;;;;;;;16.13;13.60;;;5.70;91.50;;;;;;5070057;28;20629;-50
2020/12/26 06:42:55;;;;;;;14.70;11.93;;;5.70;91.50;;;;;;5069840;28;20625;-50
2020/12/26 06:45:32;;;;;;;20.43;13.27;;;5.70;91.40;;;;;;5070035;28;21007;-50
2020/12/26 06:47:59;;;;;;;16.23;10.73;;;5.70;91.40;;;;;;5075874;28;20742;-51
2020/12/26 06:50:26;;;;;;;20.10;12.73;;;5.60;91.40;;;;;;5076473;28;20946;-50
2020/12/26 06:52:53;;;;;;;16.03;12.17;;;5.60;91.50;;;;;;5076354;28;20961;-50
2020/12/26 06:55:42;;;;;;;18.43;12.40;;;5.70;91.50;;;;;;5076434;28;21167;-50
2020/12/26 06:58:10;;;;;;;15.67;12.23;;;5.60;91.40;;;;;;5075753;28;20665;-50
2020/12/26 07:00:37;;;;;;;13.07;10.97;;;5.60;91.50;;;;;;5076085;28;20991;-51
2020/12/26 07:03:17;;;;;;;19.43;12.70;;;5.60;91.50;;;;;;5076052;28;20629;-50
2020/12/26 07:05:43;;;;;;;15.80;11.80;;;5.70;91.50;;;;;;5075953;28;20729;-50
2020/12/26 07:08:20;;;;;;;17.23;12.43;;;5.60;91.60;;;;;;5075928;28;20718;-50
2020/12/26 07:10:48;;;;;;;16.87;12.80;;;5.60;91.50;;;;;;5076148;28;20628;-50
2020/12/26 07:13:48;;;;;;;16.20;11.63;;;5.70;91.50;;;;;;5075883;28;21183;-50
2020/12/26 07:16:43;;;;;;;22.50;13.50;;;5.60;91.40;;;;;;5069656;28;21242;-52
2020/12/26 07:19:29;;;;;;;15.13;11.13;;;5.70;91.30;;;;;;5075696;28;21023;-50
2020/12/26 07:21:56;;;;;;;15.33;11.50;;;5.70;91.40;;;;;;5076331;28;20668;-50
2020/12/26 07:24:24;;;;;;;20.57;14.70;;;5.70;91.30;;;;;;5056846;28;20649;-50
2020/12/26 07:26:51;;;;;;;18.43;12.50;;;5.60;91.30;;;;;;5076048;28;20650;-50
2020/12/26 07:29:25;;;;;;;18.20;12.67;;;5.70;91.40;;;;;;5075676;28;20660;-50
2020/12/26 07:31:52;;;;;;;15.00;12.00;;;5.70;91.40;;;;;;5075777;28;20632;-52
2020/12/26 07:34:43;;;;;;;15.57;12.23;;;5.70;91.40;;;;;;5075715;28;21202;-52
2020/12/26 07:37:10;;;;;;;14.37;10.37;;;5.50;91.50;;;;;;5055513;28;20694;-52
2020/12/26 07:39:43;;;;;;;16.00;9.87;;;5.50;91.70;;;;;;5075587;28;20624;-52
2020/12/26 07:42:11;;;;;;;14.13;10.10;;;5.50;91.80;;;;;;5075825;28;20629;-52
2020/12/26 07:44:38;;;;;;;17.57;13.63;;;5.50;91.90;;;;;;5075849;28;21254;-52
2020/12/26 07:47:04;;;;;;;14.30;11.47;;;5.50;91.90;;;;;;5075260;28;20672;-52
2020/12/26 07:49:31;;;;;;;15.60;12.43;;;5.50;92.30;;;;;;5075312;28;20663;-52
2020/12/26 07:52:05;;;;;;;18.67;12.90;;;5.60;91.90;;;;;;5075335;28;20625;-52
2020/12/26 07:54:31;;;;;;;20.50;13.90;;;5.70;91.80;;;;;;5075329;28;21262;-52
2020/12/26 07:56:58;;;;;;;15.90;13.30;;;5.70;91.70;;;;;;5075071;28;20624;-52
2020/12/26 07:59:26;;;;;;;19.07;13.13;;;5.80;91.60;;;;;;5071763;28;20617;-52
2020/12/26 08:01:53;;;;;;;22.20;11.50;;;5.80;91.50;;;;;;5072334;28;20694;-51
2020/12/26 08:04:20;;;;;;;15.83;12.20;;;5.80;91.50;;;;;;5071625;28;20653;-50
2020/12/26 08:06:47;;;;;;;14.87;12.13;;;5.80;91.30;;;;;;5072202;28;21164;-50
2020/12/26 08:09:14;;;;;;;17.73;12.60;;;5.90;91.40;;;;;;5071970;28;20690;-50
2020/12/26 08:11:42;;;;;;;15.73;12.17;;;5.80;91.30;;;;;;5071961;28;20613;-50
2020/12/26 08:14:08;;;;;;;17.10;13.50;;;5.90;91.30;;;;;;5071942;28;20693;-51
2020/12/26 08:16:36;;;;;;;14.50;11.30;;;5.90;91.20;;;;;;5072306;28;20628;-51
2020/12/26 08:19:03;;;;;;;16.97;11.47;;;6.00;91.00;;;;;;5071261;28;21080;-52
2020/12/26 08:21:30;;;;;;;14.93;10.50;;;6.00;90.90;;;;;;5072009;28;20659;-52
2020/12/26 08:23:57;;;;;;;20.73;10.70;;;5.90;90.80;;;;;;5071404;28;21267;-52
2020/12/26 08:26:24;;;;;;;13.40;10.70;;;6.00;91.00;;;;;;5072125;28;20621;-52
2020/12/26 08:28:51;;;;;;;17.07;10.10;;;6.00;91.00;;;;;;5071728;28;20661;-50
2020/12/26 08:31:19;;;;;;;14.33;11.20;;;5.90;90.80;;;;;;5071853;28;20674;-51
2020/12/26 08:33:47;;;;;;;12.23;10.10;;;5.90;90.80;;;;;;5071697;28;20698;-52
2020/12/26 08:36:22;;;;;;;12.70;10.40;;;6.00;90.90;;;;;;5071630;28;20694;-52
2020/12/26 08:38:49;;;;;;;16.40;10.67;;;6.00;90.90;;;;;;5071503;28;20660;-52
2020/12/26 08:41:17;;;;;;;12.90;10.10;;;6.00;90.80;;;;;;5071438;28;20629;-52
2020/12/26 08:43:43;;;;;;;14.80;12.67;;;6.00;90.80;;;;;;5071362;28;20621;-52
2020/12/26 08:46:13;;;;;;;12.27;10.10;;;6.00;90.80;;;;;;5071379;28;20704;-53
2020/12/26 08:48:40;;;;;;;12.07;10.80;;;6.00;90.80;;;;;;5070972;28;20690;-52
2020/12/26 08:51:16;;;;;;;12.50;11.00;;;6.00;90.80;;;;;;5070651;28;20676;-52
2020/12/26 08:53:43;;;;;;;17.70;10.63;;;6.10;90.80;;;;;;5071272;28;20632;-52
2020/12/26 08:56:10;;;;;;;16.40;10.00;;;6.10;90.70;;;;;;5071327;28;20683;-52
2020/12/26 08:58:36;;;;;;;13.10;10.30;;;6.10;90.80;;;;;;5070861;28;20661;-52
2020/12/26 09:01:05;;;;;;;11.23;9.20;;;6.10;90.60;;;;;;5070833;28;20699;-53
2020/12/26 09:03:32;;;;;;;12.93;9.30;;;6.20;90.50;;;;;;5071444;28;20675;-51
2020/12/26 09:06:00;;;;;;;13.60;10.70;;;6.10;90.50;;;;;;5071437;28;20719;-52
2020/12/26 09:08:31;;;;;;;11.47;9.87;;;6.10;90.60;;;;;;5071305;28;21054;-51
2020/12/26 09:11:00;;;;;;;14.53;11.23;;;6.20;90.70;;;;;;5070887;28;20629;-51
2020/12/26 09:13:34;;;;;;;11.10;9.90;;;6.20;90.70;;;;;;5070898;28;20621;-51
2020/12/26 09:16:06;;;;;;;19.53;9.43;;;6.30;90.70;;;;;;5070782;28;21209;-50
2020/12/26 09:18:40;;;;;;;15.00;10.53;;;6.50;90.20;;;;;;5070547;28;20729;-50
2020/12/26 09:21:07;;;;;;;12.77;10.80;;;6.60;89.90;;;;;;5070705;28;20656;-51
2020/12/26 09:23:36;;;;;;;11.83;9.47;;;6.60;89.60;;;;;;5070457;28;20631;-50
2020/12/26 09:26:10;;;;;;;10.37;9.30;;;6.60;89.00;;;;;;5070698;28;20689;-51
2020/12/26 09:28:53;;;;;;;16.23;9.07;;;6.60;89.00;;;;;;5070759;28;21197;-51
2020/12/26 09:31:21;;;;;;;12.10;10.80;;;6.50;89.60;;;;;;5070910;28;21002;-51
2020/12/26 09:33:47;;;;;;;17.00;11.37;;;6.50;90.00;;;;;;5070815;28;20627;-50
2020/12/26 09:36:16;;;;;;;17.10;10.60;;;6.50;89.60;;;;;;5070329;28;20795;-50
2020/12/26 09:38:43;;;;;;;11.73;8.50;;;6.60;89.20;;;;;;5070479;28;21295;-50
2020/12/26 09:41:11;;;;;;;12.90;10.43;;;6.70;89.10;;;;;;5070682;28;20749;-50
2020/12/26 09:43:38;;;;;;;14.27;9.40;;;6.70;88.60;;;;;;5069567;28;20692;-50
2020/12/26 09:46:05;;;;;;;11.53;10.33;;;6.80;88.70;;;;;;5070589;28;20673;-50
2020/12/26 09:48:32;;;;;;;12.90;10.70;;;6.80;88.30;;;;;;5069929;28;21219;-51
2020/12/26 09:50:59;;;;;;;14.90;9.00;;;6.90;88.20;;;;;;5070137;28;20629;-51
2020/12/26 09:53:25;;;;;;;12.30;9.87;;;7.10;88.50;;;;;;5070303;28;20999;-50
2020/12/26 09:55:53;;;;;;;10.30;9.30;;;7.10;87.40;;;;;;5070084;28;20627;-50
2020/12/26 09:58:20;;;;;;;10.00;9.00;;;7.10;87.30;;;;;;5070038;28;21196;-51
2020/12/26 10:00:46;;;;;;;12.30;9.23;;;7.10;87.30;;;;;;5069857;28;20635;-50
2020/12/26 10:03:14;;;;;;;14.10;11.77;;;7.10;87.60;;;;;;5069705;28;20623;-52
2020/12/26 10:05:41;;;;;;;15.30;10.47;;;7.10;87.80;;;;;;5051723;28;20654;-53
2020/12/26 10:08:08;;;;;;;11.90;10.07;;;7.10;87.50;;;;;;5070155;28;21016;-52
2020/12/26 10:10:35;;;;;;;11.80;10.53;;;7.00;87.40;;;;;;5070475;28;21012;-52
2020/12/26 10:13:02;;;;;;;12.33;10.40;;;7.00;87.70;;;;;;5070032;28;20678;-53
2020/12/26 10:15:29;;;;;;;11.90;10.50;;;6.90;87.80;;;;;;5069779;28;20623;-50
2020/12/26 10:17:56;;;;;;;15.40;11.07;;;6.90;87.70;;;;;;5069601;28;20666;-50
2020/12/26 10:20:22;;;;;;;15.10;11.43;;;6.90;87.90;;;;;;5069759;28;20715;-50
2020/12/26 10:22:49;;;;;;;10.07;7.90;;;6.80;88.00;;;;;;5069183;28;21030;-50
2020/12/26 10:25:16;;;;;;;10.80;8.30;;;6.80;88.00;;;;;;5069732;28;20665;-51
2020/12/26 10:27:43;;;;;;;11.70;9.80;;;6.80;87.80;;;;;;5069654;28;20650;-51
2020/12/26 10:30:10;;;;;;;12.80;10.20;;;6.80;88.00;;;;;;5069671;28;20708;-50
2020/12/26 10:32:37;;;;;;;14.80;7.43;;;6.80;88.20;;;;;;5069710;28;20692;-50
2020/12/26 10:35:04;;;;;;;11.87;9.43;;;6.70;88.20;;;;;;5070537;28;20659;-50
2020/12/26 10:37:31;;;;;;;14.53;8.70;;;6.70;89.00;;;;;;5069378;28;20711;-50
2020/12/26 10:39:58;;;;;;;12.30;9.30;;;6.70;89.40;;;;;;5070048;28;21188;-50
2020/12/26 10:42:25;;;;;;;16.10;9.10;;;6.70;89.50;;;;;;5069842;28;20667;-50
2020/12/26 10:44:52;;;;;;;10.17;7.60;;;6.70;89.30;;;;;;5069572;28;21261;-51
2020/12/26 10:47:20;;;;;;;12.07;9.53;;;6.70;88.70;;;;;;5069508;28;20728;-51
2020/12/26 10:49:46;;;;;;;11.83;8.17;;;6.60;88.60;;;;;;5069409;28;20985;-50
2020/12/26 10:52:13;;;;;;;17.70;10.87;;;6.60;88.70;;;;;;5069832;28;20671;-50
2020/12/26 10:54:40;;;;;;;10.50;8.27;;;6.60;89.20;;;;;;5069652;28;20626;-50
2020/12/26 10:57:07;;;;;;;11.60;9.23;;;6.60;88.70;;;;;;5069766;28;20632;-49
2020/12/26 10:59:33;;;;;;;10.13;7.70;;;6.60;88.80;;;;;;5069338;28;20709;-50
2020/12/26 11:02:01;;;;;;;11.43;9.00;;;6.60;89.00;;;;;;5069257;28;20958;-50
2020/12/26 11:04:29;;;;;;;13.07;9.10;;;6.60;89.10;;;;;;5069241;28;20631;-50
2020/12/26 11:06:56;;;;;;;18.40;8.50;;;6.70;89.50;;;;;;5069031;28;20642;-51
2020/12/26 11:09:23;;;;;;;11.53;7.70;;;6.70;89.20;;;;;;5069873;28;21170;-50
2020/12/26 11:11:50;;;;;;;13.33;8.67;;;6.60;88.50;;;;;;5069579;28;20700;-50
2020/12/26 11:14:16;;;;;;;13.70;5.47;;;6.50;88.70;;;;;;5069968;28;20974;-51
2020/12/26 11:16:46;;;;;;;15.67;8.00;;;6.50;89.20;;;;;;5069601;28;20650;-51
2020/12/26 11:19:13;;;;;;;11.77;10.40;;;6.50;89.60;;;;;;5070015;28;20728;-51
2020/12/26 11:21:41;;;;;;;9.87;8.77;;;6.60;90.30;;;;;;5069717;28;21044;-52
2020/12/26 11:24:08;;;;;;;9.53;8.37;;;6.70;90.20;;;;;;5069237;28;20629;-50
2020/12/26 11:26:35;;;;;;;9.07;8.10;;;6.70;89.50;;;;;;5069564;28;21274;-50
2020/12/26 11:29:01;;;;;;;10.93;8.93;;;6.70;89.20;;;;;;5069543;28;20650;-51
2020/12/26 11:31:28;;;;;;;12.13;9.10;;;6.60;90.10;;;;;;5069915;28;20623;-51
2020/12/26 11:33:55;;;;;;;11.20;9.43;;;6.60;90.20;;;;;;5071110;28;20720;-50
2020/12/26 11:36:22;;;;;;;14.67;8.53;;;6.60;90.20;;;;;;5073378;28;21182;-51
2020/12/26 11:38:50;;;;;;;10.43;9.43;;;6.60;90.30;;;;;;5073566;28;20670;-53
2020/12/26 11:41:17;;;;;;;17.70;11.00;;;6.70;90.10;;;;;;5073758;28;20621;-52
2020/12/26 11:43:44;;;;;;;13.50;10.03;;;6.80;90.00;;;;;;5072970;28;20633;-50
2020/12/26 11:46:10;;;;;;;11.73;9.07;;;6.80;90.00;;;;;;5072754;28;20649;-53
2020/12/26 11:48:37;;;;;;;12.30;10.20;;;6.90;90.00;;;;;;5072854;28;21065;-50
2020/12/26 11:51:04;;;;;;;13.33;9.70;;;6.90;89.70;;;;;;5073190;28;20680;-51
2020/12/26 11:53:31;;;;;;;13.33;9.20;;;6.90;89.90;;;;;;5072848;28;20634;-51
2020/12/26 11:55:59;;;;;;;10.77;9.67;;;6.90;90.10;;;;;;5073114;28;20634;-52
2020/12/26 11:58:26;;;;;;;12.07;9.30;;;6.90;90.10;;;;;;5072486;28;20679;-51
2020/12/26 12:00:52;;;;;;;13.80;8.40;;;7.00;90.30;;;;;;5072627;28;20749;-51
2020/12/26 12:03:19;;;;;;;14.43;9.20;;;7.00;90.40;;;;;;5072381;28;20634;-51
2020/12/26 12:05:46;;;;;;;11.23;9.60;;;7.00;90.20;;;;;;5072423;28;20662;-52
2020/12/26 12:08:13;;;;;;;16.50;9.50;;;7.10;90.00;;;;;;5072504;28;20689;-52
2020/12/26 12:10:40;;;;;;;11.30;7.87;;;7.10;89.80;;;;;;5072566;28;20629;-51
2020/12/26 12:13:08;;;;;;;17.90;9.87;;;7.10;89.30;;;;;;5072378;28;21192;-52
2020/12/26 12:15:35;;;;;;;13.13;8.87;;;6.80;90.00;;;;;;5072778;28;20635;-50
2020/12/26 12:18:02;;;;;;;14.07;10.17;;;6.70;90.60;;;;;;5072657;28;20710;-51
2020/12/26 12:20:29;;;;;;;12.80;9.70;;;6.80;90.60;;;;;;5072346;28;20696;-51
2020/12/26 12:22:56;;;;;;;10.73;7.83;;;6.80;90.60;;;;;;5072759;28;20717;-51
2020/12/26 12:25:23;;;;;;;11.87;10.67;;;6.90;90.60;;;;;;5072399;28;20654;-51
2020/12/26 12:27:50;;;;;;;14.40;8.73;;;7.00;90.70;;;;;;5072153;28;20700;-52
2020/12/26 12:30:17;;;;;;;11.80;10.37;;;7.00;91.10;;;;;;5071594;28;20692;-50
2020/12/26 12:32:44;;;;;;;12.73;10.23;;;7.10;90.70;;;;;;5071951;28;20687;-50
2020/12/26 12:35:11;;;;;;;13.50;10.10;;;7.20;90.60;;;;;;5071920;28;20695;-50
2020/12/26 12:37:38;;;;;;;10.43;8.37;;;7.10;90.30;;;;;;5071430;28;20685;-51
2020/12/26 12:40:05;;;;;;;13.97;11.40;;;7.10;90.40;;;;;;5072134;28;20671;-52
2020/12/26 12:42:32;;;;;;;14.50;10.17;;;7.00;90.50;;;;;;5071948;28;20629;-51